createdAt,value
2019-03-28T00:00:21.687Z,4.70
2019-03-28T00:01:21.680Z,4.50
2019-03-28T00:02:21.696Z,4.20
2019-03-28T00:03:21.660Z,5.00
2019-03-28T00:04:21.648Z,4.40
2019-03-28T00:05:21.641Z,4.60
2019-03-28T00:06:21.649Z,4.40
2019-03-28T00:07:24.123Z,4.70
2019-03-28T00:08:21.625Z,4.10
2019-03-28T00:09:21.586Z,4.40
2019-03-28T00:10:21.584Z,4.40
2019-03-28T00:11:21.561Z,5.20
2019-03-28T00:12:21.553Z,5.10
2019-03-28T00:13:21.546Z,4.90
2019-03-28T00:14:21.557Z,4.50
2019-03-28T00:15:21.533Z,5.00
2019-03-28T00:16:21.533Z,5.50
2019-03-28T00:17:21.507Z,4.80
2019-03-28T00:18:21.497Z,5.20
2019-03-28T00:19:21.513Z,5.00
2019-03-28T00:20:21.469Z,5.40
2019-03-28T00:21:21.459Z,5.30
2019-03-28T00:22:21.442Z,5.30
2019-03-28T00:23:21.447Z,5.40
2019-03-28T00:24:21.459Z,5.50
2019-03-28T00:25:21.431Z,5.40
2019-03-28T00:26:29.902Z,5.30
2019-03-28T00:27:22.445Z,5.00
2019-03-28T00:28:21.385Z,5.30
2019-03-28T00:29:21.405Z,4.80
2019-03-28T00:30:21.371Z,4.90
2019-03-28T00:31:21.350Z,5.40
2019-03-28T00:32:21.335Z,5.10
2019-03-28T00:33:21.327Z,5.60
2019-03-28T00:34:21.332Z,5.50
2019-03-28T00:35:21.313Z,5.10
2019-03-28T00:36:21.297Z,5.40
2019-03-28T00:37:21.292Z,5.60
2019-03-28T00:38:21.309Z,5.60
2019-03-28T00:39:21.287Z,5.40
2019-03-28T00:40:21.248Z,5.20
2019-03-28T00:41:21.240Z,5.20
2019-03-28T00:42:21.236Z,5.50
2019-03-28T00:43:21.227Z,5.30
2019-03-28T00:44:21.203Z,5.10
2019-03-28T00:45:21.209Z,5.30
2019-03-28T00:46:21.277Z,5.10
2019-03-28T00:47:21.179Z,5.40
2019-03-28T00:48:21.168Z,5.70
2019-03-28T00:49:21.181Z,5.60
2019-03-28T00:50:21.169Z,5.30
2019-03-28T00:51:21.121Z,5.00
2019-03-28T00:52:21.125Z,5.20
2019-03-28T00:53:21.127Z,5.40
2019-03-28T00:54:21.125Z,4.50
2019-03-28T00:55:21.122Z,5.00
2019-03-28T00:56:21.081Z,4.80
2019-03-28T00:57:21.060Z,4.70
2019-03-28T00:58:21.060Z,5.00
2019-03-28T00:59:21.068Z,5.00
2019-03-28T01:00:21.079Z,4.70
2019-03-28T01:01:21.035Z,4.40
2019-03-28T01:02:21.231Z,4.90
2019-03-28T01:03:20.998Z,5.10
2019-03-28T01:04:20.989Z,4.80
2019-03-28T01:05:20.977Z,5.10
2019-03-28T01:06:20.981Z,5.00
2019-03-28T01:07:20.962Z,5.00
2019-03-28T01:08:20.947Z,4.40
2019-03-28T01:09:20.937Z,4.50
2019-03-28T01:10:20.938Z,4.70
2019-03-28T01:11:20.934Z,5.10
2019-03-28T01:12:20.895Z,4.60
2019-03-28T01:13:20.894Z,4.90
2019-03-28T01:14:20.882Z,4.70
2019-03-28T01:15:20.878Z,4.70
2019-03-28T01:16:20.855Z,4.60
2019-03-28T01:17:20.874Z,4.50
2019-03-28T01:18:20.837Z,5.00
2019-03-28T01:19:20.834Z,4.70
2019-03-28T01:20:20.817Z,5.20
2019-03-28T01:21:20.810Z,4.80
2019-03-28T01:22:20.794Z,4.70
2019-03-28T01:23:21.149Z,5.10
2019-03-28T01:24:20.767Z,4.80
2019-03-28T01:25:20.749Z,4.70
2019-03-28T01:26:20.733Z,5.00
2019-03-28T01:27:20.737Z,5.00
2019-03-28T01:28:20.740Z,5.20
2019-03-28T01:29:20.735Z,4.90
2019-03-28T01:30:20.696Z,4.50
2019-03-28T01:31:20.702Z,4.60
2019-03-28T01:32:20.685Z,5.40
2019-03-28T01:33:20.691Z,4.80
2019-03-28T01:34:20.668Z,4.50
2019-03-28T01:35:20.639Z,4.40
2019-03-28T01:36:20.633Z,4.80
2019-03-28T01:37:20.634Z,4.80
2019-03-28T01:38:20.646Z,5.10
2019-03-28T01:39:20.601Z,4.90
2019-03-28T01:40:20.616Z,4.50
2019-03-28T01:41:20.607Z,4.90
2019-03-28T01:42:20.575Z,4.50
2019-03-28T01:43:20.558Z,4.90
2019-03-28T01:44:20.569Z,4.60
2019-03-28T01:45:20.541Z,4.70
2019-03-28T01:46:20.566Z,4.60
2019-03-28T01:47:20.512Z,4.70
2019-03-28T01:48:20.504Z,4.80
2019-03-28T01:49:20.488Z,4.50
2019-03-28T01:50:20.496Z,4.90
2019-03-28T01:51:20.502Z,4.50
2019-03-28T01:52:21.349Z,4.80
2019-03-28T01:53:20.484Z,5.10
2019-03-28T01:54:20.452Z,5.00
2019-03-28T01:55:21.124Z,5.00
2019-03-28T01:56:20.411Z,4.80
2019-03-28T01:57:20.407Z,4.90
2019-03-28T01:58:20.395Z,5.20
2019-03-28T01:59:21.204Z,4.70
2019-03-28T02:00:20.372Z,4.40
2019-03-28T02:01:20.387Z,4.60
2019-03-28T02:02:20.352Z,4.80
2019-03-28T02:03:20.352Z,5.50
2019-03-28T02:04:20.348Z,5.30
2019-03-28T02:05:20.327Z,5.00
2019-03-28T02:06:20.321Z,5.70
2019-03-28T02:07:20.312Z,5.50
2019-03-28T02:08:20.280Z,5.50
2019-03-28T02:09:20.270Z,5.40
2019-03-28T02:10:20.257Z,5.40
2019-03-28T02:11:20.258Z,5.20
2019-03-28T02:12:20.287Z,4.70
2019-03-28T02:13:20.238Z,5.20
2019-03-28T02:14:20.225Z,5.10
2019-03-28T02:15:20.211Z,5.60
2019-03-28T02:16:20.207Z,5.90
2019-03-28T02:17:20.195Z,5.60
2019-03-28T02:18:20.205Z,5.60
2019-03-28T02:19:20.176Z,5.10
2019-03-28T02:20:20.175Z,5.90
2019-03-28T02:21:20.140Z,5.90
2019-03-28T02:22:20.137Z,6.00
2019-03-28T02:23:20.140Z,6.30
2019-03-28T02:24:20.111Z,5.40
2019-03-28T02:25:20.109Z,5.80
2019-03-28T02:26:20.092Z,6.00
2019-03-28T02:27:24.188Z,5.20
2019-03-28T02:28:20.098Z,6.50
2019-03-28T02:29:20.090Z,6.20
2019-03-28T02:30:20.037Z,6.40
2019-03-28T02:31:20.042Z,6.00
2019-03-28T02:32:20.025Z,6.30
2019-03-28T02:33:20.002Z,6.60
2019-03-28T02:34:20.016Z,6.80
2019-03-28T02:35:19.999Z,6.20
2019-03-28T02:36:19.988Z,6.50
2019-03-28T02:37:19.989Z,6.20
2019-03-28T02:38:19.961Z,6.50
2019-03-28T02:39:19.976Z,6.00
2019-03-28T02:40:19.943Z,6.60
2019-03-28T02:41:19.920Z,6.20
2019-03-28T02:42:19.915Z,6.70
2019-03-28T02:43:20.154Z,6.00
2019-03-28T02:44:19.896Z,6.70
2019-03-28T02:45:19.903Z,6.80
2019-03-28T02:46:19.893Z,6.90
2019-03-28T02:47:19.852Z,6.70
2019-03-28T02:48:19.838Z,6.60
2019-03-28T02:49:20.126Z,6.50
2019-03-28T02:50:19.877Z,6.30
2019-03-28T02:51:19.816Z,6.20
2019-03-28T02:52:19.804Z,6.40
2019-03-28T02:53:19.787Z,6.50
2019-03-28T02:54:19.779Z,6.10
2019-03-28T02:55:19.787Z,6.50
2019-03-28T02:56:19.812Z,6.40
2019-03-28T02:57:19.769Z,6.80
2019-03-28T02:58:19.747Z,7.00
2019-03-28T02:59:19.718Z,6.70
2019-03-28T03:00:20.835Z,6.50
2019-03-28T03:01:19.727Z,6.50
2019-03-28T03:02:19.698Z,7.00
2019-03-28T03:03:19.706Z,6.80
2019-03-28T03:04:19.677Z,6.80
2019-03-28T03:05:19.649Z,7.00
2019-03-28T03:06:19.642Z,7.20
2019-03-28T03:07:19.671Z,6.80
2019-03-28T03:08:19.634Z,6.80
2019-03-28T03:09:19.630Z,7.10
2019-03-28T03:10:19.613Z,7.50
2019-03-28T03:11:19.597Z,7.60
2019-03-28T03:12:19.587Z,7.40
2019-03-28T03:13:19.880Z,7.90
2019-03-28T03:14:19.552Z,7.50
2019-03-28T03:15:19.560Z,7.50
2019-03-28T03:16:19.556Z,7.70
2019-03-28T03:17:19.530Z,7.30
2019-03-28T03:18:21.376Z,8.30
2019-03-28T03:19:19.507Z,7.70
2019-03-28T03:20:19.497Z,7.80
2019-03-28T03:21:19.494Z,7.40
2019-03-28T03:22:19.471Z,8.00
2019-03-28T03:23:20.126Z,7.70
2019-03-28T03:24:19.445Z,8.70
2019-03-28T03:25:19.466Z,7.60
2019-03-28T03:26:19.554Z,8.20
2019-03-28T03:27:19.427Z,7.50
2019-03-28T03:28:19.438Z,7.90
2019-03-28T03:29:19.404Z,8.20
2019-03-28T03:30:19.393Z,8.60
2019-03-28T03:31:21.163Z,8.00
2019-03-28T03:32:19.643Z,8.00
2019-03-28T03:33:19.429Z,8.20
2019-03-28T03:34:19.355Z,8.10
2019-03-28T03:35:19.372Z,7.90
2019-03-28T03:36:19.348Z,8.40
2019-03-28T03:37:19.313Z,8.30
2019-03-28T03:38:19.309Z,8.50
2019-03-28T03:39:19.296Z,8.60
2019-03-28T03:40:19.311Z,8.30
2019-03-28T03:41:19.381Z,8.70
2019-03-28T03:42:19.270Z,8.20
2019-03-28T03:43:19.258Z,7.40
2019-03-28T03:44:19.241Z,8.10
2019-03-28T03:45:19.258Z,7.90
2019-03-28T03:46:19.235Z,8.70
2019-03-28T03:47:19.748Z,8.00
2019-03-28T03:48:19.197Z,8.00
2019-03-28T03:49:19.185Z,8.30
2019-03-28T03:50:19.177Z,8.30
2019-03-28T03:51:19.169Z,8.00
2019-03-28T03:52:19.136Z,8.60
2019-03-28T03:53:19.142Z,8.30
2019-03-28T03:54:19.128Z,8.00
2019-03-28T03:55:19.147Z,8.40
2019-03-28T03:56:19.107Z,8.60
2019-03-28T03:57:19.085Z,8.00
2019-03-28T03:58:19.307Z,8.40
2019-03-28T03:59:19.076Z,7.70
2019-03-28T04:00:19.074Z,8.80
2019-03-28T04:01:19.124Z,8.70
2019-03-28T04:02:19.042Z,7.60
2019-03-28T04:03:19.028Z,8.20
2019-03-28T04:04:19.014Z,8.50
2019-03-28T04:05:19.012Z,8.00
2019-03-28T04:06:18.993Z,8.20
2019-03-28T04:07:19.006Z,8.10
2019-03-28T04:08:18.971Z,8.00
2019-03-28T04:09:18.979Z,8.00
2019-03-28T04:10:18.944Z,8.20
2019-03-28T04:11:18.937Z,8.70
2019-03-28T04:12:18.968Z,7.60
2019-03-28T04:13:18.929Z,7.70
2019-03-28T04:14:18.919Z,7.20
2019-03-28T04:15:19.613Z,7.50
2019-03-28T04:16:18.873Z,8.20
2019-03-28T04:17:18.897Z,7.30
2019-03-28T04:18:22.138Z,7.20
2019-03-28T04:19:18.863Z,7.50
2019-03-28T04:20:18.856Z,7.00
2019-03-28T04:21:18.833Z,7.20
2019-03-28T04:22:18.884Z,7.20
2019-03-28T04:23:18.824Z,7.10
2019-03-28T04:24:18.799Z,6.60
2019-03-28T04:25:18.794Z,6.80
2019-03-28T04:26:18.776Z,6.50
2019-03-28T04:27:18.762Z,6.10
2019-03-28T04:28:30.814Z,6.50
2019-03-28T04:29:19.764Z,6.40
2019-03-28T04:30:18.725Z,6.80
2019-03-28T04:31:18.729Z,6.40
2019-03-28T04:32:18.735Z,6.30
2019-03-28T04:33:18.726Z,6.80
2019-03-28T04:34:18.693Z,6.30
2019-03-28T04:35:18.678Z,6.90
2019-03-28T04:36:18.669Z,6.10
2019-03-28T04:37:18.672Z,6.30
2019-03-28T04:38:18.642Z,6.30
2019-03-28T04:39:18.672Z,6.90
2019-03-28T04:40:18.629Z,6.40
2019-03-28T04:41:18.622Z,7.30
2019-03-28T04:42:18.592Z,6.80
2019-03-28T04:43:18.596Z,6.80
2019-03-28T04:44:18.586Z,7.00
2019-03-28T04:45:18.607Z,6.50
2019-03-28T04:46:18.563Z,7.50
2019-03-28T04:47:18.543Z,7.60
2019-03-28T04:48:18.525Z,7.40
2019-03-28T04:49:18.688Z,7.10
2019-03-28T04:50:18.529Z,6.90
2019-03-28T04:51:18.510Z,7.50
2019-03-28T04:52:19.348Z,6.10
2019-03-28T04:53:18.484Z,7.00
2019-03-28T04:54:18.471Z,6.70
2019-03-28T04:55:18.444Z,7.00
2019-03-28T04:56:18.475Z,6.50
2019-03-28T04:57:18.441Z,7.50
2019-03-28T04:58:21.452Z,7.60
2019-03-28T04:59:18.411Z,7.80
2019-03-28T05:00:18.397Z,6.50
2019-03-28T05:01:18.395Z,7.30
2019-03-28T05:02:18.395Z,6.90
2019-03-28T05:03:18.380Z,7.60
2019-03-28T05:04:20.907Z,7.60
2019-03-28T05:05:18.352Z,7.00
2019-03-28T05:06:18.340Z,6.50
2019-03-28T05:07:18.362Z,7.50
2019-03-28T05:08:18.325Z,7.80
2019-03-28T05:09:18.298Z,6.60
2019-03-28T05:10:18.298Z,7.30
2019-03-28T05:11:18.301Z,6.70
2019-03-28T05:12:18.282Z,6.20
2019-03-28T05:13:18.301Z,7.10
2019-03-28T05:14:18.239Z,6.30
2019-03-28T05:15:20.313Z,6.60
2019-03-28T05:16:18.231Z,7.50
2019-03-28T05:17:18.212Z,7.20
2019-03-28T05:18:18.211Z,7.30
2019-03-28T05:19:18.214Z,6.70
2019-03-28T05:20:18.169Z,6.80
2019-03-28T05:21:18.177Z,6.70
2019-03-28T05:22:18.156Z,6.50
2019-03-28T05:23:18.161Z,6.90
2019-03-28T05:24:18.179Z,6.80
2019-03-28T05:25:18.140Z,7.00
2019-03-28T05:26:18.119Z,6.50
2019-03-28T05:27:18.098Z,6.30
2019-03-28T05:28:18.099Z,6.70
2019-03-28T05:29:18.092Z,6.60
2019-03-28T05:30:18.087Z,6.60
2019-03-28T05:31:18.074Z,6.80
2019-03-28T05:32:18.049Z,7.10
2019-03-28T05:33:18.030Z,6.40
2019-03-28T05:34:18.025Z,6.50
2019-03-28T05:35:18.036Z,6.70
2019-03-28T05:36:18.519Z,6.50
2019-03-28T05:37:18.021Z,6.90
2019-03-28T05:38:18.003Z,6.70
2019-03-28T05:39:17.969Z,6.90
2019-03-28T05:40:17.977Z,6.80
2019-03-28T05:41:17.978Z,6.40
2019-03-28T05:42:17.963Z,6.90
2019-03-28T05:43:17.930Z,7.40
2019-03-28T05:44:17.949Z,6.70
2019-03-28T05:45:17.905Z,7.30
2019-03-28T05:46:17.895Z,7.30
2019-03-28T05:47:17.890Z,7.60
2019-03-28T05:48:17.911Z,7.30
2019-03-28T05:49:17.874Z,7.10
2019-03-28T05:50:17.870Z,6.90
2019-03-28T05:51:17.836Z,6.70
2019-03-28T05:52:17.822Z,7.10
2019-03-28T05:53:17.819Z,7.30
2019-03-28T05:54:17.832Z,7.20
2019-03-28T05:55:17.808Z,7.60
2019-03-28T05:56:17.796Z,7.30
2019-03-28T05:57:17.784Z,7.50
2019-03-28T05:58:17.771Z,6.50
2019-03-28T05:59:17.769Z,6.60
2019-03-28T06:00:17.735Z,7.10
2019-03-28T06:01:17.746Z,7.00
2019-03-28T06:02:17.726Z,7.80
2019-03-28T06:03:17.705Z,7.50
2019-03-28T06:04:17.719Z,7.30
2019-03-28T06:05:17.692Z,6.40
2019-03-28T06:06:18.381Z,7.60
2019-03-28T06:07:17.705Z,6.80
2019-03-28T06:08:17.663Z,6.60
2019-03-28T06:09:17.653Z,6.80
2019-03-28T06:10:17.676Z,6.60
2019-03-28T06:11:17.613Z,6.90
2019-03-28T06:12:19.068Z,6.80
2019-03-28T06:13:17.594Z,6.90
2019-03-28T06:14:17.591Z,6.70
2019-03-28T06:15:17.588Z,6.90
2019-03-28T06:16:17.605Z,6.50
2019-03-28T06:17:17.572Z,6.70
2019-03-28T06:18:17.546Z,7.50
2019-03-28T06:19:17.543Z,6.80
2019-03-28T06:20:17.568Z,7.50
2019-03-28T06:21:17.548Z,7.40
2019-03-28T06:22:17.508Z,6.80
2019-03-28T06:23:17.487Z,7.00
2019-03-28T06:24:17.476Z,7.10
2019-03-28T06:25:17.490Z,6.50
2019-03-28T06:26:17.462Z,6.60
2019-03-28T06:27:17.498Z,6.60
2019-03-28T06:28:17.450Z,6.50
2019-03-28T06:29:23.647Z,6.90
2019-03-28T06:30:18.602Z,6.30
2019-03-28T06:31:17.399Z,6.50
2019-03-28T06:32:17.415Z,6.60
2019-03-28T06:33:17.390Z,7.60
2019-03-28T06:34:17.376Z,7.10
2019-03-28T06:35:18.279Z,7.30
2019-03-28T06:36:17.352Z,7.50
2019-03-28T06:37:17.336Z,6.70
2019-03-28T06:38:17.346Z,7.30
2019-03-28T06:39:17.320Z,7.30
2019-03-28T06:40:17.337Z,7.30
2019-03-28T06:41:17.320Z,7.20
2019-03-28T06:42:17.288Z,7.40
2019-03-28T06:43:17.276Z,6.60
2019-03-28T06:44:17.281Z,6.60
2019-03-28T06:45:17.247Z,6.80
2019-03-28T06:46:17.244Z,7.10
2019-03-28T06:47:17.237Z,6.40
2019-03-28T06:48:17.221Z,6.10
2019-03-28T06:49:17.216Z,6.80
2019-03-28T06:50:17.234Z,5.90
2019-03-28T06:51:17.196Z,6.10
2019-03-28T06:52:17.184Z,6.20
2019-03-28T06:53:17.225Z,6.30
2019-03-28T06:54:17.156Z,5.50
2019-03-28T06:55:17.138Z,6.50
2019-03-28T06:56:17.434Z,6.40
2019-03-28T06:57:18.911Z,6.30
2019-03-28T06:58:17.149Z,6.10
2019-03-28T06:59:17.151Z,6.10
2019-03-28T07:00:17.119Z,5.50
2019-03-28T07:01:17.162Z,5.40
2019-03-28T07:02:17.430Z,6.00
2019-03-28T07:03:17.068Z,5.90
2019-03-28T07:04:17.039Z,6.00
2019-03-28T07:05:17.089Z,5.60
2019-03-28T07:06:17.070Z,5.40
2019-03-28T07:07:18.460Z,5.50
2019-03-28T07:08:16.997Z,5.10
2019-03-28T07:09:16.980Z,5.60
2019-03-28T07:10:16.980Z,6.00
2019-03-28T07:11:16.985Z,5.80
2019-03-28T07:12:16.963Z,5.90
2019-03-28T07:13:16.967Z,5.90
2019-03-28T07:14:16.944Z,5.60
2019-03-28T07:15:16.918Z,5.20
2019-03-28T07:16:16.924Z,5.60
2019-03-28T07:17:16.921Z,6.40
2019-03-28T07:18:16.919Z,5.50
2019-03-28T07:19:16.895Z,5.50
2019-03-28T07:20:16.873Z,5.70
2019-03-28T07:21:16.849Z,5.40
2019-03-28T07:22:16.863Z,6.80
2019-03-28T07:23:16.835Z,5.90
2019-03-28T07:24:16.881Z,5.90
2019-03-28T07:25:16.825Z,6.20
2019-03-28T07:26:16.811Z,6.10
2019-03-28T07:27:17.354Z,6.00
2019-03-28T07:28:16.791Z,5.80
2019-03-28T07:29:16.787Z,6.50
2019-03-28T07:30:16.777Z,5.70
2019-03-28T07:31:16.753Z,6.30
2019-03-28T07:32:16.779Z,6.40
2019-03-28T07:33:16.751Z,6.60
2019-03-28T07:34:16.714Z,6.10
2019-03-28T07:35:16.738Z,7.10
2019-03-28T07:36:16.695Z,6.40
2019-03-28T07:37:16.683Z,7.10
2019-03-28T07:38:16.681Z,6.80
2019-03-28T07:39:19.102Z,6.90
2019-03-28T07:40:16.672Z,6.90
2019-03-28T07:41:16.767Z,7.00
2019-03-28T07:42:16.644Z,6.90
2019-03-28T07:43:16.614Z,6.70
2019-03-28T07:44:16.632Z,7.50
2019-03-28T07:45:16.620Z,7.50
2019-03-28T07:46:16.594Z,6.80
2019-03-28T07:47:16.574Z,7.10
2019-03-28T07:48:16.549Z,8.30
2019-03-28T07:49:16.567Z,7.30
2019-03-28T07:50:16.549Z,7.70
2019-03-28T07:51:16.534Z,7.30
2019-03-28T07:52:16.564Z,6.50
2019-03-28T07:53:19.594Z,7.20
2019-03-28T07:54:16.487Z,8.20
2019-03-28T07:55:16.940Z,7.90
2019-03-28T07:56:16.484Z,6.90
2019-03-28T07:57:16.469Z,6.60
2019-03-28T07:58:16.448Z,7.30
2019-03-28T07:59:16.439Z,7.40
2019-03-28T08:00:16.451Z,7.20
2019-03-28T08:01:18.090Z,7.10
2019-03-28T08:02:16.419Z,7.90
2019-03-28T08:03:16.404Z,7.30
2019-03-28T08:04:16.396Z,7.10
2019-03-28T08:05:16.414Z,7.70
2019-03-28T08:06:16.375Z,7.30
2019-03-28T08:07:16.351Z,7.10
2019-03-28T08:08:16.335Z,7.20
2019-03-28T08:09:17.719Z,7.50
2019-03-28T08:10:16.360Z,7.10
2019-03-28T08:11:16.396Z,6.80
2019-03-28T08:12:22.666Z,7.20
2019-03-28T08:13:17.286Z,6.70
2019-03-28T08:14:16.278Z,6.90
2019-03-28T08:15:16.284Z,7.40
2019-03-28T08:16:16.295Z,8.00
2019-03-28T08:17:16.233Z,7.70
2019-03-28T08:18:16.231Z,7.50
2019-03-28T08:19:16.231Z,7.10
2019-03-28T08:20:16.222Z,7.70
2019-03-28T08:21:16.204Z,7.90
2019-03-28T08:22:16.225Z,7.60
2019-03-28T08:23:16.168Z,7.10
2019-03-28T08:24:16.159Z,7.10
2019-03-28T08:25:16.186Z,7.30
2019-03-28T08:26:16.143Z,7.10
2019-03-28T08:27:16.111Z,6.50
2019-03-28T08:28:16.145Z,7.30
2019-03-28T08:29:16.101Z,6.20
2019-03-28T08:30:19.595Z,6.50
2019-03-28T08:31:16.090Z,6.30
2019-03-28T08:32:16.090Z,6.40
2019-03-28T08:33:16.099Z,6.40
2019-03-28T08:34:16.052Z,6.30
2019-03-28T08:35:16.033Z,6.70
2019-03-28T08:36:16.032Z,7.10
2019-03-28T08:37:16.014Z,6.00
2019-03-28T08:38:16.050Z,6.30
2019-03-28T08:39:15.997Z,6.10
2019-03-28T08:40:16.009Z,6.10
2019-03-28T08:41:15.978Z,5.30
2019-03-28T08:42:16.676Z,5.90
2019-03-28T08:43:15.949Z,6.60
2019-03-28T08:44:15.955Z,6.00
2019-03-28T08:45:15.959Z,6.20
2019-03-28T08:46:15.920Z,6.20
2019-03-28T08:47:15.904Z,6.90
2019-03-28T08:48:15.964Z,6.80
2019-03-28T08:49:15.875Z,5.80
2019-03-28T08:50:15.890Z,7.60
2019-03-28T08:51:15.881Z,6.10
2019-03-28T08:52:15.866Z,5.90
2019-03-28T08:53:15.843Z,5.60
2019-03-28T08:54:15.837Z,6.00
2019-03-28T08:55:15.849Z,5.10
2019-03-28T08:56:15.802Z,5.20
2019-03-28T08:57:15.801Z,5.30
2019-03-28T08:58:15.790Z,5.50
2019-03-28T08:59:15.781Z,5.40
2019-03-28T09:00:16.834Z,5.80
2019-03-28T09:01:15.767Z,5.40
2019-03-28T09:02:15.752Z,5.10
2019-03-28T09:03:15.749Z,5.50
2019-03-28T09:04:15.737Z,6.00
2019-03-28T09:05:15.703Z,5.50
2019-03-28T09:06:17.109Z,5.50
2019-03-28T09:07:17.380Z,5.70
2019-03-28T09:08:15.674Z,6.30
2019-03-28T09:09:15.679Z,5.40
2019-03-28T09:10:15.647Z,5.50
2019-03-28T09:11:15.648Z,5.90
2019-03-28T09:12:15.639Z,5.70
2019-03-28T09:13:15.612Z,5.50
2019-03-28T09:14:15.642Z,5.70
2019-03-28T09:15:15.597Z,5.20
2019-03-28T09:16:15.590Z,5.50
2019-03-28T09:17:15.575Z,5.70
2019-03-28T09:18:15.574Z,5.40
2019-03-28T09:19:15.553Z,4.90
2019-03-28T09:20:15.575Z,5.90
2019-03-28T09:21:15.522Z,5.40
2019-03-28T09:22:15.515Z,5.20
2019-03-28T09:23:15.514Z,5.10
2019-03-28T09:24:15.503Z,5.00
2019-03-28T09:25:15.533Z,5.20
2019-03-28T09:26:15.482Z,4.90
2019-03-28T09:27:15.457Z,5.40
2019-03-28T09:28:15.452Z,5.30
2019-03-28T09:29:15.442Z,5.60
2019-03-28T09:30:15.463Z,6.10
2019-03-28T09:31:20.204Z,6.00
2019-03-28T09:32:16.407Z,5.60
2019-03-28T09:33:15.405Z,5.50
2019-03-28T09:34:15.378Z,5.40
2019-03-28T09:35:15.380Z,5.80
2019-03-28T09:36:15.400Z,6.20
2019-03-28T09:37:15.359Z,5.60
2019-03-28T09:38:15.353Z,5.90
2019-03-28T09:39:15.326Z,5.60
2019-03-28T09:40:15.360Z,5.90
2019-03-28T09:41:15.327Z,5.80
2019-03-28T09:42:15.291Z,6.10
2019-03-28T09:43:15.283Z,5.30
2019-03-28T09:44:15.273Z,6.10
2019-03-28T09:45:15.259Z,5.90
2019-03-28T09:46:15.725Z,5.70
2019-03-28T09:47:15.265Z,5.90
2019-03-28T09:48:15.241Z,6.50
2019-03-28T09:49:15.225Z,6.00
2019-03-28T09:50:15.214Z,6.00
2019-03-28T09:51:15.194Z,6.20
2019-03-28T09:52:15.203Z,5.30
2019-03-28T09:53:15.168Z,5.80
2019-03-28T09:54:15.166Z,5.60
2019-03-28T09:55:18.517Z,6.10
2019-03-28T09:56:15.155Z,5.60
2019-03-28T09:57:15.155Z,6.00
2019-03-28T09:58:15.135Z,6.00
2019-03-28T09:59:15.097Z,5.60
2019-03-28T10:00:15.109Z,5.30
2019-03-28T10:01:15.091Z,5.80
2019-03-28T10:02:15.099Z,5.40
2019-03-28T10:03:15.069Z,5.40
2019-03-28T10:04:15.056Z,5.80
2019-03-28T10:05:15.040Z,5.40
2019-03-28T10:06:15.051Z,5.40
2019-03-28T10:07:15.048Z,5.20
2019-03-28T10:08:15.016Z,5.00
2019-03-28T10:09:15.003Z,5.80
2019-03-28T10:10:15.008Z,5.30
2019-03-28T10:11:14.973Z,5.80
2019-03-28T10:12:15.007Z,5.30
2019-03-28T10:13:14.958Z,5.80
2019-03-28T10:14:15.014Z,5.50
2019-03-28T10:15:14.937Z,5.30
2019-03-28T10:16:14.934Z,5.50
2019-03-28T10:17:14.905Z,5.60
2019-03-28T10:18:14.916Z,5.60
2019-03-28T10:19:14.935Z,5.60
2019-03-28T10:20:14.885Z,4.60
2019-03-28T10:21:14.876Z,4.60
2019-03-28T10:22:14.874Z,5.00
2019-03-28T10:23:14.848Z,4.70
2019-03-28T10:24:14.835Z,5.00
2019-03-28T10:25:14.845Z,5.20
2019-03-28T10:26:14.813Z,6.10
2019-03-28T10:27:14.810Z,5.70
2019-03-28T10:28:14.801Z,4.80
2019-03-28T10:29:14.778Z,5.40
2019-03-28T10:30:14.801Z,5.60
2019-03-28T10:31:16.680Z,5.50
2019-03-28T10:32:14.745Z,6.20
2019-03-28T10:33:14.744Z,5.70
2019-03-28T10:34:14.744Z,5.60
2019-03-28T10:35:14.712Z,5.90
2019-03-28T10:36:14.701Z,5.00
2019-03-28T10:37:14.694Z,6.30
2019-03-28T10:38:14.682Z,5.90
2019-03-28T10:39:14.692Z,6.20
2019-03-28T10:40:14.676Z,5.40
2019-03-28T10:41:14.650Z,5.90
2019-03-28T10:42:14.645Z,5.60
2019-03-28T10:43:14.624Z,4.90
2019-03-28T10:44:14.619Z,5.70
2019-03-28T10:45:14.627Z,5.10
2019-03-28T10:46:14.588Z,4.90
2019-03-28T10:47:14.587Z,4.90
2019-03-28T10:48:14.570Z,5.10
2019-03-28T10:49:15.664Z,5.20
2019-03-28T10:50:14.566Z,5.20
2019-03-28T10:51:14.564Z,5.50
2019-03-28T10:52:14.529Z,4.90
2019-03-28T10:53:14.530Z,5.50
2019-03-28T10:54:20.455Z,5.00
2019-03-28T10:55:16.621Z,5.60
2019-03-28T10:56:21.626Z,5.80
2019-03-28T10:57:28.943Z,6.00
2019-03-28T10:58:19.568Z,5.30
2019-03-28T10:59:23.244Z,4.80
2019-03-28T11:00:24.093Z,5.60
2019-03-28T11:01:16.806Z,5.00
2019-03-28T11:02:15.416Z,5.30
2019-03-28T11:03:14.400Z,5.40
2019-03-28T11:04:14.388Z,5.40
2019-03-28T11:05:14.580Z,5.30
2019-03-28T11:06:14.396Z,5.00
2019-03-28T11:07:14.350Z,5.40
2019-03-28T11:08:14.350Z,5.20
2019-03-28T11:09:14.329Z,5.70
2019-03-28T11:10:14.339Z,5.10
2019-03-28T11:11:14.358Z,5.40
2019-03-28T11:12:14.312Z,4.80
2019-03-28T11:13:14.300Z,5.40
2019-03-28T11:14:14.301Z,4.70
2019-03-28T11:15:14.291Z,4.50
2019-03-28T11:16:15.173Z,4.40
2019-03-28T11:17:14.264Z,4.20
2019-03-28T11:18:14.257Z,4.20
2019-03-28T11:19:15.939Z,4.00
2019-03-28T11:20:14.235Z,4.00
2019-03-28T11:21:14.214Z,4.60
2019-03-28T11:22:14.183Z,4.50
2019-03-28T11:23:14.209Z,4.80
2019-03-28T11:24:14.178Z,4.30
2019-03-28T11:25:14.190Z,4.20
2019-03-28T11:26:14.184Z,5.00
2019-03-28T11:27:14.133Z,4.80
2019-03-28T11:28:14.133Z,4.70
2019-03-28T11:29:14.112Z,4.40
2019-03-28T11:30:14.115Z,4.70
2019-03-28T11:31:14.104Z,4.60
2019-03-28T11:32:14.131Z,5.50
2019-03-28T11:33:14.077Z,5.50
2019-03-28T11:34:14.697Z,5.50
2019-03-28T11:35:14.046Z,5.00
2019-03-28T11:36:14.045Z,4.20
2019-03-28T11:37:25.366Z,5.00
2019-03-28T11:38:15.051Z,5.10
2019-03-28T11:39:14.001Z,4.60
2019-03-28T11:40:13.998Z,4.90
2019-03-28T11:41:14.006Z,5.10
2019-03-28T11:42:13.970Z,4.90
2019-03-28T11:43:14.001Z,5.30
2019-03-28T11:44:13.981Z,5.40
2019-03-28T11:45:13.949Z,4.90
2019-03-28T11:46:13.935Z,5.00
2019-03-28T11:47:13.928Z,4.40
2019-03-28T11:48:13.940Z,4.80
2019-03-28T11:49:13.896Z,4.40
2019-03-28T11:50:16.922Z,4.40
2019-03-28T11:51:13.894Z,4.80
2019-03-28T11:52:13.867Z,4.70
2019-03-28T11:53:13.921Z,4.80
2019-03-28T11:54:13.892Z,5.30
2019-03-28T11:55:13.834Z,4.70
2019-03-28T11:56:13.835Z,5.10
2019-03-28T11:57:15.778Z,4.70
2019-03-28T11:58:13.832Z,4.70
2019-03-28T11:59:13.785Z,5.10
2019-03-28T12:00:13.775Z,4.50
2019-03-28T12:01:13.788Z,5.00
2019-03-28T12:02:20.097Z,4.40
2019-03-28T12:03:14.744Z,4.80
2019-03-28T12:04:13.734Z,4.80
2019-03-28T12:05:13.726Z,4.60
2019-03-28T12:06:13.724Z,5.00
2019-03-28T12:07:13.717Z,4.90
2019-03-28T12:08:13.686Z,5.00
2019-03-28T12:09:13.689Z,5.00
2019-03-28T12:10:13.667Z,4.90
2019-03-28T12:11:13.652Z,5.20
2019-03-28T12:12:13.656Z,5.10
2019-03-28T12:13:13.638Z,5.10
2019-03-28T12:14:13.614Z,4.70
2019-03-28T12:15:13.618Z,5.20
2019-03-28T12:16:13.606Z,5.00
2019-03-28T12:17:13.610Z,4.80
2019-03-28T12:18:13.612Z,5.50
2019-03-28T12:19:13.566Z,5.10
2019-03-28T12:20:13.565Z,5.30
2019-03-28T12:21:13.556Z,5.00
2019-03-28T12:22:13.532Z,4.80
2019-03-28T12:23:13.534Z,4.70
2019-03-28T12:24:13.547Z,4.80
2019-03-28T12:25:13.505Z,5.20
2019-03-28T12:26:13.491Z,5.60
2019-03-28T12:27:13.484Z,5.40
2019-03-28T12:28:13.478Z,5.30
2019-03-28T12:29:13.465Z,5.10
2019-03-28T12:30:15.918Z,5.30
2019-03-28T12:31:13.446Z,4.70
2019-03-28T12:32:14.580Z,5.00
2019-03-28T12:33:13.415Z,4.70
2019-03-28T12:34:13.393Z,4.40
2019-03-28T12:35:13.427Z,4.90
2019-03-28T12:36:13.382Z,5.30
2019-03-28T12:37:13.379Z,5.30
2019-03-28T12:38:13.363Z,5.30
2019-03-28T12:39:15.652Z,5.20
2019-03-28T12:40:13.347Z,5.00
2019-03-28T12:41:13.353Z,4.70
2019-03-28T12:42:13.319Z,4.70
2019-03-28T12:43:13.292Z,4.50
2019-03-28T12:44:13.299Z,4.80
2019-03-28T12:45:13.287Z,5.00
2019-03-28T12:46:13.262Z,4.50
2019-03-28T12:47:13.266Z,4.80
2019-03-28T12:48:13.268Z,4.90
2019-03-28T12:49:13.237Z,5.40
2019-03-28T12:50:13.256Z,5.30
2019-03-28T12:51:13.214Z,5.40
2019-03-28T12:52:13.208Z,5.80
2019-03-28T12:53:13.213Z,5.70
2019-03-28T12:54:13.170Z,5.40
2019-03-28T12:55:13.192Z,5.50
2019-03-28T12:56:13.160Z,5.00
2019-03-28T12:57:14.580Z,5.10
2019-03-28T12:58:13.138Z,6.70
2019-03-28T12:59:13.137Z,6.10
2019-03-28T13:00:13.144Z,5.60
2019-03-28T13:01:13.118Z,5.30
2019-03-28T13:02:27.083Z,5.30
2019-03-28T13:03:14.083Z,4.60
2019-03-28T13:04:13.066Z,4.80
2019-03-28T13:05:13.062Z,5.00
2019-03-28T13:06:13.076Z,4.70
2019-03-28T13:07:13.060Z,4.70
2019-03-28T13:08:13.042Z,4.70
2019-03-28T13:09:13.031Z,4.50
2019-03-28T13:10:13.008Z,5.00
2019-03-28T13:11:13.018Z,5.20
2019-03-28T13:12:12.976Z,4.20
2019-03-28T13:13:12.971Z,5.10
2019-03-28T13:14:12.991Z,4.20
2019-03-28T13:15:13.021Z,4.90
2019-03-28T13:16:12.936Z,5.00
2019-03-28T13:17:12.951Z,4.80
2019-03-28T13:18:12.908Z,5.10